createdAt,value
2023-04-30T00:03:53.681Z,8.80
2023-04-30T00:08:56.406Z,8.63
2023-04-30T00:13:59.078Z,8.66
2023-04-30T00:19:01.450Z,8.77
2023-04-30T00:24:04.152Z,8.55
2023-04-30T00:29:07.198Z,8.69
2023-04-30T00:34:09.977Z,8.60
2023-04-30T00:39:12.878Z,8.70
2023-04-30T00:44:15.109Z,8.70
2023-04-30T00:49:17.775Z,8.94
2023-04-30T00:54:21.708Z,9.11
2023-04-30T00:59:25.476Z,9.03
2023-04-30T01:04:29.060Z,9.07
2023-04-30T01:09:32.673Z,8.94
2023-04-30T01:14:48.497Z,8.81
2023-04-30T01:19:51.505Z,8.84
2023-04-30T01:25:13.033Z,8.70
2023-04-30T01:30:17.212Z,8.58
2023-04-30T01:35:19.839Z,8.63
2023-04-30T01:40:28.757Z,8.76
2023-04-30T01:45:43.520Z,8.77
2023-04-30T01:51:02.379Z,8.81
2023-04-30T01:56:09.137Z,8.52
2023-04-30T02:01:27.616Z,8.75
2023-04-30T02:06:31.547Z,8.76
2023-04-30T02:11:34.693Z,8.69
2023-04-30T02:16:37.457Z,8.83
2023-04-30T02:21:40.271Z,8.87
2023-04-30T02:26:43.051Z,8.87
2023-04-30T02:31:45.813Z,8.45
2023-04-30T02:36:48.070Z,8.77
2023-04-30T02:41:50.767Z,9.00
2023-04-30T02:46:53.410Z,8.69
2023-04-30T02:51:56.608Z,8.38
2023-04-30T02:56:58.848Z,8.37
2023-04-30T03:02:01.778Z,8.21
2023-04-30T03:07:04.481Z,8.04
2023-04-30T03:12:07.119Z,8.00
2023-04-30T03:17:09.935Z,8.00
2023-04-30T03:22:12.617Z,8.03
2023-04-30T03:27:17.195Z,8.27
2023-04-30T03:32:19.910Z,8.30
2023-04-30T03:37:22.628Z,8.29
2023-04-30T03:42:25.365Z,8.64
2023-04-30T03:47:27.602Z,8.25
2023-04-30T03:52:31.804Z,8.87
2023-04-30T03:57:34.386Z,8.84
2023-04-30T04:02:38.165Z,9.26
2023-04-30T04:07:41.612Z,9.06
2023-04-30T04:12:44.540Z,9.40
2023-04-30T04:17:47.240Z,9.70
2023-04-30T04:22:50.314Z,9.95
2023-04-30T04:27:53.081Z,10.13
2023-04-30T04:32:55.846Z,10.71
2023-04-30T04:37:58.150Z,11.04
2023-04-30T04:43:00.898Z,11.37
2023-04-30T04:48:03.559Z,11.78
2023-04-30T04:53:06.485Z,12.07
2023-04-30T04:58:08.760Z,12.66
2023-04-30T05:03:11.479Z,12.92
2023-04-30T05:08:14.158Z,13.20
2023-04-30T05:13:16.345Z,13.38
2023-04-30T05:18:19.085Z,13.76
2023-04-30T05:23:21.968Z,14.96
2023-04-30T05:28:24.668Z,15.71
2023-04-30T05:33:27.734Z,15.89
2023-04-30T05:38:30.458Z,17.23
2023-04-30T05:43:33.168Z,17.79
2023-04-30T05:48:35.399Z,17.57
2023-04-30T05:53:37.946Z,17.40
2023-04-30T05:58:40.421Z,17.67
2023-04-30T06:03:43.103Z,21.07
2023-04-30T06:08:45.868Z,25.05
2023-04-30T06:13:49.760Z,27.55
2023-04-30T06:18:53.686Z,29.55
2023-04-30T06:23:56.818Z,29.77
2023-04-30T06:28:59.001Z,31.08
2023-04-30T06:34:01.691Z,31.21
2023-04-30T06:39:05.647Z,32.05
2023-04-30T06:44:09.548Z,31.73
2023-04-30T06:49:12.278Z,32.47
2023-04-30T06:54:15.063Z,31.52
2023-04-30T06:59:18.138Z,28.21
2023-04-30T07:04:20.652Z,30.29
2023-04-30T07:09:23.120Z,30.13
2023-04-30T07:14:25.774Z,29.01
2023-04-30T07:19:27.854Z,28.79
2023-04-30T07:24:31.654Z,28.29
2023-04-30T07:29:34.636Z,28.00
2023-04-30T07:34:37.232Z,27.20
2023-04-30T07:39:39.999Z,26.60
2023-04-30T07:44:42.653Z,25.80
2023-04-30T07:49:45.372Z,24.74
2023-04-30T07:54:47.989Z,25.34
2023-04-30T07:59:51.418Z,23.16
2023-04-30T08:04:55.896Z,21.76
2023-04-30T08:09:58.514Z,21.02
2023-04-30T08:15:03.542Z,20.71
2023-04-30T08:20:07.338Z,22.26
2023-04-30T08:25:12.986Z,22.14
2023-04-30T08:30:15.722Z,22.45
2023-04-30T08:35:18.455Z,22.82
2023-04-30T08:40:23.561Z,22.47
2023-04-30T08:45:29.267Z,20.83
2023-04-30T08:50:32.496Z,22.17
2023-04-30T08:55:35.562Z,23.40
2023-04-30T09:00:39.980Z,22.56
2023-04-30T09:05:42.796Z,21.08
2023-04-30T09:10:45.516Z,19.95
2023-04-30T09:15:52.401Z,20.71
2023-04-30T09:21:02.194Z,22.25
2023-04-30T09:26:04.963Z,22.22
2023-04-30T09:31:22.381Z,21.88
2023-04-30T09:36:25.098Z,21.02
2023-04-30T09:41:29.614Z,20.92
2023-04-30T09:46:34.885Z,21.21
2023-04-30T09:51:54.851Z,21.04
2023-04-30T09:56:59.538Z,21.36
2023-04-30T10:02:04.706Z,21.00
2023-04-30T10:07:12.516Z,20.97
2023-04-30T10:12:23.830Z,21.35
2023-04-30T10:17:29.909Z,21.94
2023-04-30T10:22:35.352Z,22.59
2023-04-30T10:27:38.282Z,22.52
2023-04-30T10:32:56.353Z,22.15
2023-04-30T10:38:16.296Z,22.94
2023-04-30T10:43:20.172Z,23.84
2023-04-30T10:48:27.578Z,23.91
2023-04-30T10:53:34.029Z,24.45
2023-04-30T10:58:39.644Z,23.47
2023-04-30T11:04:03.306Z,22.10
2023-04-30T11:09:05.947Z,21.58
2023-04-30T11:14:11.628Z,20.48
2023-04-30T11:19:15.269Z,20.46
2023-04-30T11:24:20.401Z,20.38
2023-04-30T11:29:23.126Z,20.39
2023-04-30T11:34:26.231Z,20.31
2023-04-30T11:39:30.038Z,19.84
2023-04-30T11:44:32.871Z,19.33
2023-04-30T11:49:35.717Z,19.61
2023-04-30T11:54:38.489Z,20.98
2023-04-30T11:59:42.508Z,21.14
2023-04-30T12:04:45.510Z,20.74
2023-04-30T12:09:57.741Z,20.17
2023-04-30T12:15:12.528Z,19.52
2023-04-30T12:20:16.069Z,19.47
2023-04-30T12:25:20.988Z,19.38
2023-04-30T12:30:27.355Z,19.61
2023-04-30T12:35:32.700Z,19.69
2023-04-30T12:40:35.926Z,19.40
2023-04-30T12:45:56.034Z,20.08
2023-04-30T12:51:01.428Z,20.48
2023-04-30T12:56:17.754Z,20.35
2023-04-30T13:01:23.299Z,19.55
2023-04-30T13:06:27.856Z,20.35
2023-04-30T13:11:30.409Z,20.63
2023-04-30T13:16:33.254Z,20.65
2023-04-30T13:21:35.971Z,20.60
2023-04-30T13:26:38.133Z,20.69
2023-04-30T13:31:42.609Z,21.34
2023-04-30T13:36:47.086Z,20.96
2023-04-30T13:41:49.639Z,21.37
2023-04-30T13:46:52.447Z,20.77
2023-04-30T13:51:55.120Z,20.14
2023-04-30T13:56:59.889Z,19.77
2023-04-30T14:02:02.750Z,19.41
2023-04-30T14:07:04.995Z,19.46
2023-04-30T14:12:07.636Z,19.59
2023-04-30T14:17:09.923Z,19.80
2023-04-30T14:22:12.773Z,19.66
2023-04-30T14:27:15.619Z,19.16
2023-04-30T14:32:18.528Z,19.08
2023-04-30T14:37:20.874Z,19.09
2023-04-30T14:42:26.737Z,18.89
2023-04-30T14:47:29.289Z,19.07
2023-04-30T14:52:36.641Z,19.19
2023-04-30T14:57:39.594Z,19.10
2023-04-30T15:02:42.251Z,19.04
2023-04-30T15:07:44.779Z,19.81
2023-04-30T15:12:47.421Z,19.81
2023-04-30T15:17:49.755Z,19.55
2023-04-30T15:22:55.118Z,18.83
2023-04-30T15:27:58.542Z,18.76
2023-04-30T15:33:01.251Z,18.77
2023-04-30T15:38:03.536Z,18.70
2023-04-30T15:43:06.530Z,18.56
2023-04-30T15:48:09.362Z,18.12
2023-04-30T15:53:11.577Z,18.56
2023-04-30T15:58:14.130Z,18.71
2023-04-30T16:03:16.953Z,18.83
2023-04-30T16:08:20.002Z,18.73
2023-04-30T16:13:22.270Z,18.80
2023-04-30T16:18:25.127Z,18.55
2023-04-30T16:23:28.717Z,18.40
2023-04-30T16:28:31.508Z,17.94
2023-04-30T16:33:34.081Z,17.83
2023-04-30T16:38:37.328Z,17.60
2023-04-30T16:43:40.175Z,17.36
2023-04-30T16:48:42.826Z,17.15
2023-04-30T16:53:45.609Z,16.71
2023-04-30T16:58:48.323Z,16.36
2023-04-30T17:03:51.622Z,15.88
2023-04-30T17:08:54.776Z,15.71
2023-04-30T17:13:58.395Z,15.23
2023-04-30T17:19:00.939Z,15.39
2023-04-30T17:24:04.031Z,14.16
2023-04-30T17:29:06.816Z,13.43
2023-04-30T17:34:09.122Z,13.35
2023-04-30T17:39:12.992Z,13.24
2023-04-30T17:44:19.691Z,12.92
2023-04-30T17:49:22.224Z,12.74
2023-04-30T17:54:25.833Z,12.53
2023-04-30T17:59:30.521Z,12.67
2023-04-30T18:04:32.757Z,12.29
2023-04-30T18:09:36.244Z,12.32
2023-04-30T18:14:38.989Z,12.36
2023-04-30T18:19:44.775Z,12.16
2023-04-30T18:24:47.496Z,12.07
2023-04-30T18:29:50.493Z,11.99
2023-04-30T18:34:52.615Z,11.83
2023-04-30T18:39:55.925Z,11.84
2023-04-30T18:44:59.079Z,11.62
2023-04-30T18:50:01.268Z,11.57
2023-04-30T18:55:06.681Z,11.44
2023-04-30T19:00:10.662Z,11.13
2023-04-30T19:05:14.408Z,11.10
2023-04-30T19:10:17.078Z,10.85
2023-04-30T19:15:19.930Z,10.85
2023-04-30T19:20:22.577Z,10.97
2023-04-30T19:25:27.859Z,11.01
2023-04-30T19:30:30.763Z,10.87
2023-04-30T19:35:35.455Z,10.80
2023-04-30T19:40:38.083Z,10.68
2023-04-30T19:45:57.627Z,10.47
2023-04-30T19:51:09.627Z,10.20
2023-04-30T19:56:12.645Z,10.16
2023-04-30T20:01:15.546Z,10.30
2023-04-30T20:06:18.830Z,10.26
2023-04-30T20:11:21.571Z,10.10
2023-04-30T20:16:24.313Z,9.87
2023-04-30T20:21:33.189Z,10.04
2023-04-30T20:26:38.373Z,10.14
2023-04-30T20:31:46.083Z,9.77
2023-04-30T20:36:49.777Z,9.76
2023-04-30T20:41:55.386Z,9.89
2023-04-30T20:46:58.261Z,9.93
2023-04-30T20:52:00.816Z,9.72
2023-04-30T20:57:03.418Z,9.89
2023-04-30T21:02:06.134Z,10.02
2023-04-30T21:07:08.471Z,9.43
2023-04-30T21:12:11.979Z,9.85
2023-04-30T21:22:45.872Z,9.84
2023-04-30T21:27:52.501Z,9.86
2023-04-30T21:33:01.104Z,9.93
2023-04-30T21:38:06.768Z,10.07
2023-04-30T21:43:12.033Z,9.75
2023-04-30T21:48:58.176Z,10.24
2023-04-30T21:54:00.771Z,9.97
2023-04-30T21:59:03.396Z,10.16
2023-04-30T22:04:06.459Z,10.10
2023-04-30T22:09:11.544Z,10.10
2023-04-30T22:14:14.175Z,9.85
2023-04-30T22:19:17.022Z,10.04
2023-04-30T22:24:19.735Z,10.07
2023-04-30T22:29:21.829Z,10.01
2023-04-30T22:34:24.409Z,9.78
2023-04-30T22:39:26.938Z,10.00
2023-04-30T22:44:30.044Z,9.95
2023-04-30T22:49:33.146Z,9.77
2023-04-30T22:54:36.233Z,9.90
2023-04-30T22:59:39.773Z,9.76
2023-04-30T23:04:42.354Z,9.78
2023-04-30T23:09:45.602Z,9.51
2023-04-30T23:14:48.365Z,9.69
2023-04-30T23:19:50.764Z,9.51
2023-04-30T23:24:53.473Z,9.15
2023-04-30T23:29:56.432Z,9.30
2023-04-30T23:34:59.386Z,9.30
2023-04-30T23:40:01.797Z,9.10
2023-04-30T23:45:04.732Z,8.52
2023-04-30T23:50:08.126Z,8.57
2023-04-30T23:55:11.404Z,8.73
